createdAt,value
2018-02-21T00:01:59.492Z,35.30
2018-02-21T00:04:27.028Z,38.20
2018-02-21T00:06:54.648Z,33.92
2018-02-21T00:09:22.734Z,33.00
2018-02-21T00:11:54.918Z,32.83
2018-02-21T00:14:22.915Z,33.25
2018-02-21T00:16:51.718Z,34.92
2018-02-21T00:19:22.650Z,37.80
2018-02-21T00:21:59.256Z,45.97
2018-02-21T00:24:30.898Z,37.55
2018-02-21T00:27:01.205Z,36.90
2018-02-21T00:29:31.811Z,38.42
2018-02-21T00:32:02.183Z,36.70
2018-02-21T00:34:29.768Z,38.95
2018-02-21T00:37:05.138Z,34.78
2018-02-21T00:39:34.205Z,35.97
2018-02-21T00:42:04.290Z,35.05
2018-02-21T00:44:32.371Z,36.17
2018-02-21T00:47:00.365Z,38.40
2018-02-21T00:49:32.219Z,37.92
2018-02-21T00:52:02.135Z,38.28
2018-02-21T00:54:39.025Z,36.13
2018-02-21T00:57:07.034Z,38.58
2018-02-21T00:59:36.120Z,38.25
2018-02-21T01:02:05.262Z,36.13
2018-02-21T01:04:34.153Z,38.95
2018-02-21T01:07:04.784Z,38.28
2018-02-21T01:09:33.362Z,40.22
2018-02-21T01:12:03.433Z,36.45
2018-02-21T01:14:31.163Z,38.92
2018-02-21T01:17:00.017Z,38.63
2018-02-21T01:22:08.270Z,40.45
2018-02-21T01:24:38.111Z,38.20
2018-02-21T01:27:06.316Z,36.38
2018-02-21T01:29:34.895Z,37.92
2018-02-21T01:32:03.999Z,43.08
2018-02-21T01:34:34.016Z,39.92
2018-02-21T01:37:03.326Z,42.55
2018-02-21T01:39:34.778Z,37.70
2018-02-21T01:42:03.913Z,37.20
2018-02-21T01:44:34.703Z,35.13
2018-02-21T01:47:03.008Z,37.25
2018-02-21T01:49:31.392Z,35.70
2018-02-21T01:52:01.065Z,36.88
2018-02-21T01:57:12.061Z,38.30
2018-02-21T01:59:41.142Z,40.12
2018-02-21T02:02:08.800Z,39.28
2018-02-21T02:04:40.669Z,38.65
2018-02-21T02:07:08.944Z,40.00
2018-02-21T02:09:36.544Z,40.38
2018-02-21T02:12:05.648Z,43.60
2018-02-21T02:14:36.630Z,42.62
2018-02-21T02:17:08.056Z,40.12
2018-02-21T02:19:38.407Z,44.28
2018-02-21T02:22:09.830Z,38.72
2018-02-21T02:24:43.911Z,39.25
2018-02-21T02:27:18.959Z,40.22
2018-02-21T02:29:52.835Z,40.03
2018-02-21T02:32:23.260Z,44.50
2018-02-21T02:34:51.553Z,43.60
2018-02-21T02:37:23.490Z,41.40
2018-02-21T02:40:01.598Z,41.58
2018-02-21T02:45:05.673Z,36.15
2018-02-21T02:47:34.793Z,42.50
2018-02-21T02:50:03.665Z,43.05
2018-02-21T02:52:32.591Z,38.60
2018-02-21T02:57:41.259Z,39.47
2018-02-21T03:00:13.668Z,39.88
2018-02-21T03:02:41.468Z,41.72
2018-02-21T03:05:09.898Z,36.67
2018-02-21T03:10:11.647Z,39.35
2018-02-21T03:12:41.673Z,40.65
2018-02-21T03:15:11.860Z,41.03
2018-02-21T03:17:50.940Z,39.45
2018-02-21T03:22:54.104Z,39.60
2018-02-21T03:25:23.983Z,41.13
2018-02-21T03:27:53.609Z,40.12
2018-02-21T03:30:23.021Z,40.58
2018-02-21T03:32:56.726Z,41.67
2018-02-21T03:35:27.950Z,43.13
2018-02-21T03:37:55.661Z,41.03
2018-02-21T03:40:27.826Z,40.85
2018-02-21T03:42:57.025Z,38.53
2018-02-21T03:45:29.318Z,37.88
2018-02-21T03:47:58.417Z,36.22
2018-02-21T03:50:28.829Z,37.40
2018-02-21T03:52:58.915Z,40.05
2018-02-21T03:55:32.807Z,38.35
2018-02-21T03:58:04.624Z,40.75
2018-02-21T04:00:34.319Z,40.78
2018-02-21T04:03:04.190Z,41.60
2018-02-21T04:05:32.876Z,41.15
2018-02-21T04:08:00.877Z,44.78
2018-02-21T04:10:35.276Z,40.65
2018-02-21T04:13:07.300Z,40.92
2018-02-21T04:15:34.842Z,41.28
2018-02-21T04:18:03.543Z,42.35
2018-02-21T04:20:35.205Z,39.33
2018-02-21T04:23:04.371Z,38.80
2018-02-21T04:25:32.002Z,39.40
2018-02-21T04:28:00.474Z,43.28
2018-02-21T04:30:32.852Z,40.22
2018-02-21T04:33:03.150Z,41.83
2018-02-21T04:35:35.271Z,41.33
2018-02-21T04:38:02.826Z,40.53
2018-02-21T04:40:37.304Z,41.22
2018-02-21T04:43:06.519Z,40.75
2018-02-21T04:45:34.064Z,38.83
2018-02-21T04:48:02.876Z,40.85
2018-02-21T04:50:32.277Z,41.75
2018-02-21T04:53:01.590Z,42.67
2018-02-21T04:55:35.002Z,40.40
2018-02-21T04:58:06.971Z,42.17
2018-02-21T05:00:36.140Z,41.35
2018-02-21T05:03:05.371Z,40.22
2018-02-21T05:05:33.027Z,38.35
2018-02-21T05:08:04.417Z,37.33
2018-02-21T05:10:32.631Z,37.67
2018-02-21T05:13:01.122Z,34.78
2018-02-21T05:15:29.515Z,36.95
2018-02-21T05:17:57.030Z,36.58
2018-02-21T05:20:25.335Z,38.17
2018-02-21T05:22:52.874Z,40.38
2018-02-21T05:25:20.503Z,35.80
2018-02-21T05:27:51.112Z,39.50
2018-02-21T05:30:18.704Z,37.95
2018-02-21T05:32:47.069Z,36.60
2018-02-21T05:35:20.683Z,40.83
2018-02-21T05:37:49.312Z,40.28
2018-02-21T05:40:17.384Z,40.20
2018-02-21T05:42:48.654Z,40.70
2018-02-21T05:45:16.219Z,39.85
2018-02-21T05:47:43.740Z,39.95
2018-02-21T05:50:13.232Z,41.60
2018-02-21T05:52:47.348Z,42.33
2018-02-21T05:55:15.402Z,39.53
2018-02-21T05:57:43.776Z,39.90
2018-02-21T06:00:12.128Z,39.25
2018-02-21T06:02:39.716Z,39.35
2018-02-21T06:05:07.294Z,40.22
2018-02-21T06:07:36.493Z,37.80
2018-02-21T06:10:04.815Z,41.13
2018-02-21T06:12:32.407Z,40.88
2018-02-21T06:15:00.742Z,40.55
2018-02-21T06:17:29.055Z,38.38
2018-02-21T06:19:57.079Z,37.90
2018-02-21T06:22:25.402Z,35.42
2018-02-21T06:24:53.732Z,36.83
2018-02-21T06:27:22.795Z,37.20
2018-02-21T06:29:53.030Z,45.67
2018-02-21T06:32:23.136Z,40.42
2018-02-21T06:34:51.505Z,43.58
2018-02-21T06:37:19.781Z,50.60
2018-02-21T06:39:48.165Z,44.08
2018-02-21T06:42:17.977Z,43.80
2018-02-21T06:44:46.354Z,42.67
2018-02-21T06:47:14.715Z,37.35
2018-02-21T06:49:44.034Z,42.20
2018-02-21T06:52:13.043Z,42.00
2018-02-21T06:54:40.638Z,41.03
2018-02-21T06:57:08.365Z,38.83
2018-02-21T06:59:35.926Z,38.97
2018-02-21T07:02:04.429Z,44.78
2018-02-21T07:04:34.162Z,44.08
2018-02-21T07:07:01.670Z,44.17
2018-02-21T07:09:30.191Z,40.25
2018-02-21T07:11:57.751Z,39.53
2018-02-21T07:14:27.106Z,41.25
2018-02-21T07:16:54.663Z,40.95
2018-02-21T07:19:22.257Z,38.70
2018-02-21T07:21:51.441Z,39.70
2018-02-21T07:24:19.119Z,40.80
2018-02-21T07:26:47.432Z,38.33
2018-02-21T07:29:15.196Z,40.75
2018-02-21T07:31:42.731Z,34.38
2018-02-21T07:34:10.982Z,36.63
2018-02-21T07:36:40.988Z,37.53
2018-02-21T07:39:09.338Z,38.20
2018-02-21T07:41:38.496Z,40.50
2018-02-21T07:44:07.163Z,47.80
2018-02-21T07:46:34.668Z,40.83
2018-02-21T07:49:03.061Z,40.75
2018-02-21T07:51:31.277Z,41.72
2018-02-21T07:53:59.668Z,40.12
2018-02-21T07:56:28.222Z,40.00
2018-02-21T07:58:55.722Z,40.75
2018-02-21T08:01:23.293Z,39.63
2018-02-21T08:03:53.231Z,43.80
2018-02-21T08:06:20.787Z,40.45
2018-02-21T08:08:48.370Z,39.40
2018-02-21T08:11:17.193Z,38.85
2018-02-21T08:13:44.781Z,37.78
2018-02-21T08:16:12.334Z,37.55
2018-02-21T08:18:39.867Z,39.22
2018-02-21T08:21:07.461Z,38.38
2018-02-21T08:23:36.470Z,36.85
2018-02-21T08:26:04.783Z,36.75
2018-02-21T08:28:33.543Z,37.58
2018-02-21T08:31:02.468Z,36.88
2018-02-21T08:33:30.607Z,37.13
2018-02-21T08:35:59.722Z,38.90
2018-02-21T08:38:27.270Z,34.28
2018-02-21T08:40:54.778Z,35.22
2018-02-21T08:43:23.835Z,39.25
2018-02-21T08:45:52.776Z,36.40
2018-02-21T08:48:21.919Z,37.45
2018-02-21T08:50:50.063Z,37.13
2018-02-21T08:53:19.249Z,36.20
2018-02-21T08:55:47.622Z,34.38
2018-02-21T08:58:15.924Z,32.42
2018-02-21T09:00:43.502Z,33.90
2018-02-21T09:03:11.145Z,35.17
2018-02-21T09:05:38.671Z,34.08
2018-02-21T09:08:06.217Z,34.95
2018-02-21T09:10:34.614Z,32.10
2018-02-21T09:13:02.952Z,40.78
2018-02-21T09:15:30.479Z,33.10
2018-02-21T09:17:59.734Z,33.88
2018-02-21T09:20:27.350Z,38.15
2018-02-21T09:22:55.625Z,33.50
2018-02-21T09:25:23.752Z,26.92
2018-02-21T09:27:51.271Z,32.08
2018-02-21T09:30:18.793Z,28.70
2018-02-21T09:32:46.303Z,28.80
2018-02-21T09:35:13.855Z,27.73
2018-02-21T09:37:41.386Z,29.37
2018-02-21T09:40:09.312Z,26.45
2018-02-21T09:42:38.196Z,27.17
2018-02-21T09:45:05.649Z,27.67
2018-02-21T09:47:33.612Z,26.27
2018-02-21T09:50:01.140Z,27.95
2018-02-21T09:52:28.637Z,26.85
2018-02-21T09:54:56.181Z,24.52
2018-02-21T09:57:23.655Z,24.30
2018-02-21T09:59:52.993Z,21.75
2018-02-21T10:02:21.196Z,22.52
2018-02-21T10:04:48.877Z,23.20
2018-02-21T10:07:17.322Z,23.08
2018-02-21T10:09:45.649Z,21.48
2018-02-21T10:12:13.162Z,20.33
2018-02-21T10:14:40.706Z,24.33
2018-02-21T10:17:08.257Z,22.52
2018-02-21T10:19:39.605Z,23.60
2018-02-21T10:22:07.163Z,21.80
2018-02-21T10:24:34.699Z,22.30
2018-02-21T10:27:04.980Z,23.48
2018-02-21T10:29:32.569Z,24.65
2018-02-21T10:32:00.015Z,24.50
2018-02-21T10:34:27.867Z,24.50
2018-02-21T10:36:56.104Z,26.30
2018-02-21T10:39:23.829Z,20.95
2018-02-21T10:41:51.755Z,19.87
2018-02-21T10:44:19.637Z,18.25
2018-02-21T10:46:49.327Z,19.98
2018-02-21T10:49:17.766Z,23.95
2018-02-21T10:51:46.126Z,21.90
2018-02-21T10:54:14.717Z,25.95
2018-02-21T10:56:42.880Z,23.55
2018-02-21T10:59:11.484Z,22.67
2018-02-21T11:01:39.404Z,22.27
2018-02-21T11:04:07.249Z,21.58
2018-02-21T11:06:34.948Z,23.30
2018-02-21T11:09:03.165Z,25.92
2018-02-21T11:11:31.302Z,25.30
2018-02-21T11:13:59.912Z,25.15
2018-02-21T11:16:28.561Z,24.58
2018-02-21T11:18:57.199Z,24.80
2018-02-21T11:21:25.044Z,22.62
2018-02-21T11:23:54.025Z,26.60
2018-02-21T11:26:21.808Z,28.02
2018-02-21T11:28:49.981Z,25.90
2018-02-21T11:31:18.209Z,27.48
2018-02-21T11:33:46.170Z,24.77
2018-02-21T11:36:15.654Z,25.77
2018-02-21T11:38:44.394Z,23.40
2018-02-21T11:41:12.474Z,23.17
2018-02-21T11:43:40.413Z,26.12
2018-02-21T11:46:08.788Z,22.62
2018-02-21T11:48:37.819Z,20.48
2018-02-21T11:51:06.623Z,21.35
2018-02-21T11:53:34.898Z,20.85
2018-02-21T11:56:06.560Z,24.63
2018-02-21T11:58:35.072Z,23.27
2018-02-21T12:01:02.752Z,25.92
2018-02-21T12:03:30.521Z,25.05
2018-02-21T12:05:58.136Z,24.95
2018-02-21T12:08:27.025Z,24.25
2018-02-21T12:10:55.571Z,23.92
2018-02-21T12:13:25.346Z,24.33
2018-02-21T12:15:53.823Z,26.23
2018-02-21T12:18:21.579Z,25.05
2018-02-21T12:20:49.970Z,23.65
2018-02-21T12:23:18.018Z,23.83
2018-02-21T12:25:45.820Z,23.25
2018-02-21T12:28:14.028Z,27.13
2018-02-21T12:30:41.936Z,23.95
2018-02-21T12:33:10.479Z,22.83
2018-02-21T12:35:38.257Z,24.35
2018-02-21T12:38:06.163Z,26.30
2018-02-21T12:43:36.614Z,26.92
2018-02-21T12:46:04.849Z,27.35
2018-02-21T12:48:33.798Z,27.52
2018-02-21T12:51:01.546Z,27.55
2018-02-21T12:53:29.438Z,26.40
2018-02-21T12:55:57.131Z,27.10
2018-02-21T12:58:26.533Z,24.33
2018-02-21T13:00:54.517Z,23.75
2018-02-21T13:03:23.321Z,20.37
2018-02-21T13:05:52.045Z,20.77
2018-02-21T13:08:21.422Z,22.52
2018-02-21T13:10:50.115Z,22.62
2018-02-21T13:13:19.059Z,24.12
2018-02-21T13:15:47.657Z,23.67
2018-02-21T13:18:15.608Z,24.40
2018-02-21T13:20:43.260Z,23.90
2018-02-21T13:23:10.969Z,23.52
2018-02-21T13:25:38.588Z,24.33
2018-02-21T13:28:07.805Z,25.17
2018-02-21T13:30:36.275Z,23.45
2018-02-21T13:33:03.974Z,24.27
2018-02-21T13:35:32.884Z,24.87
2018-02-21T13:38:00.708Z,21.75
2018-02-21T13:40:29.244Z,24.02
2018-02-21T13:42:57.216Z,24.60
2018-02-21T13:45:25.315Z,24.20
2018-02-21T13:47:54.098Z,22.98
2018-02-21T13:50:22.819Z,24.37
2018-02-21T13:52:51.825Z,24.33
2018-02-21T13:55:19.915Z,24.00
2018-02-21T13:57:47.770Z,25.92
2018-02-21T14:00:15.490Z,20.62
2018-02-21T14:02:44.118Z,22.77
2018-02-21T14:05:11.841Z,25.00
2018-02-21T14:07:39.615Z,23.00
2018-02-21T14:10:08.154Z,21.35
2018-02-21T14:12:36.865Z,24.15
2018-02-21T14:15:05.367Z,24.60
2018-02-21T14:17:34.291Z,24.02
2018-02-21T14:20:02.229Z,25.00
2018-02-21T14:22:29.713Z,25.05
2018-02-21T14:24:57.177Z,27.92
2018-02-21T14:27:24.647Z,27.05
2018-02-21T14:29:52.090Z,25.52
2018-02-21T14:32:19.548Z,29.02
2018-02-21T14:34:46.997Z,29.20
2018-02-21T14:37:14.451Z,34.92
2018-02-21T14:39:41.916Z,31.00
2018-02-21T14:42:09.372Z,32.65
2018-02-21T14:44:36.828Z,31.00
2018-02-21T14:47:04.285Z,25.83
2018-02-21T14:49:31.738Z,30.50
2018-02-21T14:51:59.189Z,30.30
2018-02-21T14:54:26.648Z,28.70
2018-02-21T14:56:54.108Z,32.20
2018-02-21T14:59:21.553Z,27.20
2018-02-21T15:01:49.006Z,30.73
2018-02-21T15:04:17.226Z,30.90
2018-02-21T15:06:44.700Z,26.50
2018-02-21T15:09:12.141Z,25.85
2018-02-21T15:11:40.007Z,28.12
2018-02-21T15:14:07.849Z,31.27
2018-02-21T15:16:35.293Z,30.65
2018-02-21T15:19:02.767Z,32.70
2018-02-21T15:21:30.215Z,30.45
2018-02-21T15:23:57.678Z,30.08
2018-02-21T15:26:25.130Z,32.15
2018-02-21T15:28:52.592Z,28.27
2018-02-21T15:31:20.046Z,31.90
2018-02-21T15:33:47.514Z,34.40
2018-02-21T15:36:14.969Z,35.03
2018-02-21T15:38:42.478Z,32.78
2018-02-21T15:41:09.890Z,31.50
2018-02-21T15:43:37.350Z,32.33
2018-02-21T15:46:04.811Z,36.85
2018-02-21T15:48:32.261Z,37.13
2018-02-21T15:50:59.722Z,36.17
2018-02-21T15:53:27.184Z,34.83
2018-02-21T15:55:55.960Z,36.25
2018-02-21T15:58:23.423Z,39.20
2018-02-21T16:00:50.884Z,38.15
2018-02-21T16:03:18.343Z,42.42
2018-02-21T16:05:47.338Z,40.15
2018-02-21T16:08:14.790Z,39.20
2018-02-21T16:10:42.253Z,37.70
2018-02-21T16:13:10.474Z,40.42
2018-02-21T16:15:37.938Z,39.22
2018-02-21T16:18:05.408Z,43.60
2018-02-21T16:20:33.631Z,38.38
2018-02-21T16:23:01.860Z,42.15
2018-02-21T16:25:29.309Z,44.67
2018-02-21T16:27:56.781Z,44.75
2018-02-21T16:30:24.260Z,46.53
2018-02-21T16:32:51.706Z,44.83
2018-02-21T16:35:19.170Z,44.80
2018-02-21T16:37:46.622Z,45.33
2018-02-21T16:40:14.842Z,45.12
2018-02-21T16:42:42.319Z,46.80
2018-02-21T16:45:09.774Z,46.47
2018-02-21T16:47:37.220Z,49.78
2018-02-21T16:50:04.687Z,47.58
2018-02-21T16:52:32.139Z,47.85
2018-02-21T16:54:59.602Z,47.95
2018-02-21T16:57:27.064Z,47.55
2018-02-21T16:59:54.521Z,46.25
2018-02-21T17:02:22.372Z,49.05
2018-02-21T17:04:49.831Z,44.25
2018-02-21T17:07:17.278Z,44.25
2018-02-21T17:09:44.747Z,42.03
2018-02-21T17:12:12.235Z,47.40
2018-02-21T17:14:39.684Z,48.13
2018-02-21T17:17:07.144Z,48.05
2018-02-21T17:19:34.608Z,48.72
2018-02-21T17:22:02.091Z,49.95
2018-02-21T17:24:30.327Z,48.30
2018-02-21T17:26:57.791Z,52.10
2018-02-21T17:29:25.254Z,51.78
2018-02-21T17:31:52.712Z,48.20
2018-02-21T17:34:20.163Z,51.50
2018-02-21T17:36:47.672Z,50.53
2018-02-21T17:39:15.904Z,48.13
2018-02-21T17:41:43.368Z,50.75
2018-02-21T17:44:10.821Z,51.80
2018-02-21T17:46:38.302Z,52.03
2018-02-21T17:49:06.522Z,47.20
2018-02-21T17:51:33.977Z,44.53
2018-02-21T17:54:01.442Z,48.72
2018-02-21T17:56:28.904Z,43.05
2018-02-21T17:58:56.366Z,48.90
2018-02-21T18:01:23.830Z,49.50
2018-02-21T18:03:51.273Z,45.83
2018-02-21T18:06:18.738Z,46.50
2018-02-21T18:08:46.224Z,44.42
2018-02-21T18:11:13.719Z,43.65
2018-02-21T18:13:41.184Z,45.70
2018-02-21T18:16:09.036Z,47.20
2018-02-21T18:18:36.488Z,47.50
2018-02-21T18:21:03.937Z,47.45
2018-02-21T18:23:31.418Z,47.08
2018-02-21T18:25:58.909Z,49.38
2018-02-21T18:28:26.369Z,49.33
2018-02-21T18:30:53.840Z,50.78
2018-02-21T18:33:21.292Z,51.40
2018-02-21T18:35:49.521Z,48.45
2018-02-21T18:38:16.973Z,48.50
2018-02-21T18:40:44.469Z,51.97
2018-02-21T18:43:11.920Z,48.30
2018-02-21T18:45:39.381Z,46.67
2018-02-21T18:48:06.846Z,51.05
2018-02-21T18:50:34.307Z,48.97
2018-02-21T18:53:01.761Z,48.87
2018-02-21T18:55:29.219Z,46.13
2018-02-21T18:57:56.668Z,50.35
2018-02-21T19:00:24.136Z,46.63
2018-02-21T19:02:52.361Z,46.58
2018-02-21T19:05:19.814Z,44.25
2018-02-21T19:07:47.267Z,42.17
2018-02-21T19:10:14.717Z,41.85
2018-02-21T19:12:42.190Z,45.78
2018-02-21T19:15:10.787Z,47.17
2018-02-21T19:17:38.254Z,48.25
2018-02-21T19:20:05.700Z,47.25
2018-02-21T19:22:33.170Z,46.55
2018-02-21T19:25:00.626Z,46.50
2018-02-21T19:27:28.096Z,46.25
2018-02-21T19:29:55.562Z,47.20
2018-02-21T19:32:23.801Z,47.40
2018-02-21T19:34:51.257Z,47.08
2018-02-21T19:37:18.742Z,47.05
2018-02-21T19:39:46.178Z,45.60
2018-02-21T19:42:13.625Z,42.85
2018-02-21T19:44:41.076Z,41.05
2018-02-21T19:47:08.532Z,41.53
2018-02-21T19:49:35.983Z,42.17
2018-02-21T19:52:03.443Z,42.42
2018-02-21T19:54:30.910Z,40.28
2018-02-21T19:56:58.394Z,44.80
2018-02-21T19:59:25.853Z,40.78
2018-02-21T20:01:53.301Z,41.55
2018-02-21T20:04:20.803Z,41.13
2018-02-21T20:06:48.250Z,32.30
2018-02-21T20:09:16.470Z,38.33
2018-02-21T20:11:43.933Z,37.85
2018-02-21T20:14:11.385Z,37.92
2018-02-21T20:16:39.252Z,38.28
2018-02-21T20:19:06.694Z,38.90
2018-02-21T20:21:34.158Z,39.92
2018-02-21T20:24:01.626Z,39.42
2018-02-21T20:26:29.077Z,40.15
2018-02-21T20:28:56.557Z,42.10
2018-02-21T20:31:24.001Z,40.15
2018-02-21T20:33:51.484Z,39.75
2018-02-21T20:36:19.720Z,42.08
2018-02-21T20:38:47.183Z,39.35
2018-02-21T20:41:14.629Z,38.88
2018-02-21T20:43:42.858Z,40.38
2018-02-21T20:46:11.070Z,39.90
2018-02-21T20:48:38.607Z,38.90
2018-02-21T20:51:06.054Z,36.67
2018-02-21T20:53:33.518Z,37.60
2018-02-21T20:56:00.973Z,37.70
2018-02-21T20:58:28.422Z,37.90
2018-02-21T21:00:55.869Z,37.10
2018-02-21T21:03:24.104Z,36.53
2018-02-21T21:05:51.561Z,36.50
2018-02-21T21:08:19.010Z,32.25
2018-02-21T21:10:47.222Z,33.05
2018-02-21T21:13:15.449Z,33.47
2018-02-21T21:15:42.927Z,34.47
2018-02-21T21:18:10.380Z,33.63
2018-02-21T21:20:38.599Z,36.20
2018-02-21T21:23:08.728Z,33.42
2018-02-21T21:25:36.190Z,33.65
2018-02-21T21:28:03.652Z,35.03
2018-02-21T21:30:34.791Z,35.00
2018-02-21T21:33:02.262Z,35.58
2018-02-21T21:35:29.753Z,36.88
2018-02-21T21:37:57.228Z,36.08
2018-02-21T21:40:24.662Z,36.35
2018-02-21T21:42:52.212Z,33.60
2018-02-21T21:45:19.708Z,36.30
2018-02-21T21:47:47.164Z,36.50
2018-02-21T21:50:15.390Z,35.70
2018-02-21T21:52:42.897Z,35.83
2018-02-21T21:55:11.111Z,34.85
2018-02-21T21:57:38.574Z,35.13
2018-02-21T22:00:06.044Z,34.08
2018-02-21T22:02:33.490Z,35.92
2018-02-21T22:05:00.951Z,35.35
2018-02-21T22:07:28.492Z,34.58
2018-02-21T22:09:56.011Z,34.05
2018-02-21T22:12:24.020Z,30.95
2018-02-21T22:14:51.536Z,28.92
2018-02-21T22:17:21.671Z,29.02
2018-02-21T22:19:49.690Z,32.67
2018-02-21T22:22:19.348Z,32.20
2018-02-21T22:24:56.670Z,32.38
2018-02-21T22:27:24.642Z,33.53
2018-02-21T22:29:53.190Z,33.78
2018-02-21T22:32:21.946Z,31.40
2018-02-21T22:34:50.393Z,32.20
2018-02-21T22:37:18.037Z,31.35
2018-02-21T22:39:52.260Z,33.95
2018-02-21T22:42:20.646Z,31.90
2018-02-21T22:44:48.216Z,33.35
2018-02-21T22:47:18.389Z,31.12
2018-02-21T22:49:50.389Z,32.97
2018-02-21T22:52:19.967Z,31.60
2018-02-21T22:54:47.945Z,28.17
2018-02-21T22:57:16.856Z,30.55
2018-02-21T23:02:24.744Z,32.90
2018-02-21T23:04:55.158Z,31.10
2018-02-21T23:07:26.807Z,33.83
2018-02-21T23:09:55.124Z,32.97
2018-02-21T23:12:25.258Z,31.83
2018-02-21T23:14:54.285Z,31.40
2018-02-21T23:17:21.950Z,33.47
2018-02-21T23:19:53.390Z,32.83
2018-02-21T23:22:21.757Z,31.87
2018-02-21T23:24:52.778Z,31.77
2018-02-21T23:27:23.809Z,29.75
2018-02-21T23:29:52.929Z,33.22
2018-02-21T23:32:22.562Z,31.30
2018-02-21T23:34:54.293Z,33.75
2018-02-21T23:37:27.732Z,33.13
2018-02-21T23:39:56.037Z,30.62
2018-02-21T23:42:24.183Z,32.22
2018-02-21T23:44:55.104Z,28.02
2018-02-21T23:47:23.545Z,28.87
2018-02-21T23:49:56.779Z,27.90
2018-02-21T23:52:27.236Z,30.08
2018-02-21T23:54:56.442Z,25.95
2018-02-21T23:57:25.282Z,29.63
2018-02-21T23:59:54.683Z,30.27
